sensor_id;sensor_type;location;lat;lon;timestamp;P1;durP1;ratioP1;P2;durP2;ratioP2
76117;SDS011;64851;50.232;20.364;2023-01-13T00:00:44;6.80;;;3.10;;
76117;SDS011;64851;50.232;20.364;2023-01-13T00:03:28;8.50;;;3.10;;
76117;SDS011;64851;50.232;20.364;2023-01-13T00:06:11;7.60;;;3.30;;
76117;SDS011;64851;50.232;20.364;2023-01-13T00:08:55;7.90;;;2.70;;
76117;SDS011;64851;50.232;20.364;2023-01-13T00:11:38;8.20;;;2.80;;
76117;SDS011;64851;50.232;20.364;2023-01-13T00:14:26;6.30;;;3.00;;
76117;SDS011;64851;50.232;20.364;2023-01-13T00:17:10;8.40;;;2.90;;
76117;SDS011;64851;50.232;20.364;2023-01-13T00:19:51;7.40;;;3.00;;
76117;SDS011;64851;50.232;20.364;2023-01-13T00:22:34;8.80;;;3.50;;
76117;SDS011;64851;50.232;20.364;2023-01-13T00:25:14;8.50;;;3.70;;
76117;SDS011;64851;50.232;20.364;2023-01-13T00:27:56;7.60;;;3.20;;
76117;SDS011;64851;50.232;20.364;2023-01-13T00:30:36;6.80;;;3.10;;
76117;SDS011;64851;50.232;20.364;2023-01-13T00:33:18;8.00;;;2.90;;
76117;SDS011;64851;50.232;20.364;2023-01-13T00:35:59;6.80;;;3.10;;
76117;SDS011;64851;50.232;20.364;2023-01-13T00:38:41;6.00;;;2.30;;
76117;SDS011;64851;50.232;20.364;2023-01-13T00:41:23;7.00;;;2.60;;
76117;SDS011;64851;50.232;20.364;2023-01-13T00:44:05;7.60;;;2.70;;
76117;SDS011;64851;50.232;20.364;2023-01-13T00:46:46;6.30;;;2.70;;
76117;SDS011;64851;50.232;20.364;2023-01-13T00:49:28;11.50;;;3.70;;
76117;SDS011;64851;50.232;20.364;2023-01-13T00:52:10;7.10;;;2.60;;
76117;SDS011;64851;50.232;20.364;2023-01-13T00:54:52;6.30;;;2.50;;
76117;SDS011;64851;50.232;20.364;2023-01-13T00:57:40;7.10;;;2.90;;
76117;SDS011;64851;50.232;20.364;2023-01-13T01:00:17;5.70;;;2.10;;
76117;SDS011;64851;50.232;20.364;2023-01-13T01:03:05;5.00;;;1.90;;
76117;SDS011;64851;50.232;20.364;2023-01-13T01:05:52;8.10;;;2.80;;
76117;SDS011;64851;50.232;20.364;2023-01-13T01:08:34;6.10;;;2.30;;
76117;SDS011;64851;50.232;20.364;2023-01-13T01:11:17;8.10;;;2.60;;
76117;SDS011;64851;50.232;20.364;2023-01-13T01:14:06;4.30;;;2.00;;
76117;SDS011;64851;50.232;20.364;2023-01-13T01:16:50;8.30;;;3.30;;
76117;SDS011;64851;50.232;20.364;2023-01-13T01:19:31;5.60;;;2.90;;
76117;SDS011;64851;50.232;20.364;2023-01-13T01:22:18;7.90;;;2.70;;
76117;SDS011;64851;50.232;20.364;2023-01-13T01:25:06;6.20;;;2.80;;
76117;SDS011;64851;50.232;20.364;2023-01-13T01:28:03;6.90;;;2.50;;
76117;SDS011;64851;50.232;20.364;2023-01-13T01:30:39;5.30;;;1.90;;
76117;SDS011;64851;50.232;20.364;2023-01-13T01:33:34;3.90;;;1.70;;
76117;SDS011;64851;50.232;20.364;2023-01-13T01:36:10;7.90;;;2.50;;
76117;SDS011;64851;50.232;20.364;2023-01-13T01:39:06;4.80;;;2.30;;
76117;SDS011;64851;50.232;20.364;2023-01-13T01:41:41;5.80;;;2.40;;
76117;SDS011;64851;50.232;20.364;2023-01-13T01:44:57;6.50;;;2.90;;
76117;SDS011;64851;50.232;20.364;2023-01-13T01:47:35;5.20;;;1.70;;
76117;SDS011;64851;50.232;20.364;2023-01-13T01:50:29;5.70;;;2.60;;
76117;SDS011;64851;50.232;20.364;2023-01-13T01:53:06;5.50;;;2.10;;
76117;SDS011;64851;50.232;20.364;2023-01-13T01:55:56;6.60;;;2.40;;
76117;SDS011;64851;50.232;20.364;2023-01-13T01:58:40;6.10;;;2.30;;
76117;SDS011;64851;50.232;20.364;2023-01-13T02:01:37;8.10;;;2.60;;
76117;SDS011;64851;50.232;20.364;2023-01-13T02:04:36;4.70;;;2.70;;
76117;SDS011;64851;50.232;20.364;2023-01-13T02:10:08;4.80;;;2.20;;
76117;SDS011;64851;50.232;20.364;2023-01-13T02:13:07;5.30;;;2.10;;
76117;SDS011;64851;50.232;20.364;2023-01-13T02:18:56;7.20;;;1.90;;
76117;SDS011;64851;50.232;20.364;2023-01-13T02:31:02;8.60;;;2.60;;
76117;SDS011;64851;50.232;20.364;2023-01-13T02:34:21;4.60;;;2.00;;
76117;SDS011;64851;50.232;20.364;2023-01-13T02:37:03;6.20;;;1.80;;
76117;SDS011;64851;50.232;20.364;2023-01-13T02:39:54;3.70;;;1.70;;
76117;SDS011;64851;50.232;20.364;2023-01-13T02:42:44;3.80;;;1.70;;
76117;SDS011;64851;50.232;20.364;2023-01-13T02:46:00;3.70;;;1.60;;
76117;SDS011;64851;50.232;20.364;2023-01-13T02:48:39;4.90;;;1.60;;
76117;SDS011;64851;50.232;20.364;2023-01-13T02:51:28;4.90;;;1.30;;
76117;SDS011;64851;50.232;20.364;2023-01-13T02:54:08;3.10;;;1.30;;
76117;SDS011;64851;50.232;20.364;2023-01-13T02:56:59;3.90;;;1.30;;
76117;SDS011;64851;50.232;20.364;2023-01-13T02:59:35;4.90;;;1.70;;
76117;SDS011;64851;50.232;20.364;2023-01-13T03:02:24;3.90;;;1.60;;
76117;SDS011;64851;50.232;20.364;2023-01-13T03:05:01;3.40;;;1.60;;
76117;SDS011;64851;50.232;20.364;2023-01-13T03:11:10;5.80;;;2.00;;
76117;SDS011;64851;50.232;20.364;2023-01-13T03:14:06;4.40;;;1.90;;
76117;SDS011;64851;50.232;20.364;2023-01-13T03:20:14;6.20;;;2.10;;
76117;SDS011;64851;50.232;20.364;2023-01-13T03:26:10;4.30;;;2.00;;
76117;SDS011;64851;50.232;20.364;2023-01-13T03:32:12;5.50;;;2.00;;
76117;SDS011;64851;50.232;20.364;2023-01-13T03:34:59;4.50;;;2.00;;
76117;SDS011;64851;50.232;20.364;2023-01-13T03:37:48;4.90;;;2.50;;
76117;SDS011;64851;50.232;20.364;2023-01-13T03:40:34;5.50;;;2.60;;
76117;SDS011;64851;50.232;20.364;2023-01-13T03:43:33;5.00;;;2.20;;
76117;SDS011;64851;50.232;20.364;2023-01-13T03:46:52;4.90;;;2.30;;
76117;SDS011;64851;50.232;20.364;2023-01-13T03:49:45;4.60;;;2.10;;
76117;SDS011;64851;50.232;20.364;2023-01-13T03:53:09;4.50;;;2.60;;
76117;SDS011;64851;50.232;20.364;2023-01-13T03:55:54;4.80;;;1.70;;
76117;SDS011;64851;50.232;20.364;2023-01-13T03:58:45;3.90;;;1.70;;
76117;SDS011;64851;50.232;20.364;2023-01-13T04:04:26;4.90;;;2.70;;
76117;SDS011;64851;50.232;20.364;2023-01-13T04:07:38;5.40;;;2.20;;
76117;SDS011;64851;50.232;20.364;2023-01-13T04:10:42;4.30;;;2.20;;
76117;SDS011;64851;50.232;20.364;2023-01-13T04:13:23;4.70;;;1.80;;
76117;SDS011;64851;50.232;20.364;2023-01-13T04:16:13;4.30;;;1.90;;
76117;SDS011;64851;50.232;20.364;2023-01-13T04:18:48;4.30;;;1.90;;
76117;SDS011;64851;50.232;20.364;2023-01-13T04:21:43;3.30;;;1.80;;
76117;SDS011;64851;50.232;20.364;2023-01-13T04:24:19;4.40;;;1.60;;
76117;SDS011;64851;50.232;20.364;2023-01-13T04:27:07;4.70;;;2.40;;
76117;SDS011;64851;50.232;20.364;2023-01-13T04:29:45;6.00;;;2.10;;
76117;SDS011;64851;50.232;20.364;2023-01-13T04:32:51;4.90;;;2.00;;
76117;SDS011;64851;50.232;20.364;2023-01-13T04:35:26;5.60;;;2.50;;
76117;SDS011;64851;50.232;20.364;2023-01-13T04:38:15;5.50;;;2.20;;
76117;SDS011;64851;50.232;20.364;2023-01-13T04:40:58;6.50;;;5.10;;
76117;SDS011;64851;50.232;20.364;2023-01-13T04:43:38;4.80;;;1.90;;
76117;SDS011;64851;50.232;20.364;2023-01-13T04:46:20;4.70;;;2.40;;
76117;SDS011;64851;50.232;20.364;2023-01-13T04:49:01;9.80;;;3.20;;
76117;SDS011;64851;50.232;20.364;2023-01-13T04:51:43;8.70;;;3.40;;
76117;SDS011;64851;50.232;20.364;2023-01-13T04:54:30;7.40;;;3.10;;
76117;SDS011;64851;50.232;20.364;2023-01-13T04:57:12;7.50;;;3.20;;
76117;SDS011;64851;50.232;20.364;2023-01-13T05:00:00;5.60;;;2.60;;
76117;SDS011;64851;50.232;20.364;2023-01-13T05:02:35;7.40;;;3.30;;
76117;SDS011;64851;50.232;20.364;2023-01-13T05:05:24;11.10;;;3.60;;
76117;SDS011;64851;50.232;20.364;2023-01-13T05:08:01;9.10;;;3.50;;
76117;SDS011;64851;50.232;20.364;2023-01-13T05:10:48;10.30;;;4.00;;
76117;SDS011;64851;50.232;20.364;2023-01-13T05:13:24;9.90;;;4.20;;
76117;SDS011;64851;50.232;20.364;2023-01-13T05:16:29;11.30;;;4.60;;
76117;SDS011;64851;50.232;20.364;2023-01-13T05:19:30;12.00;;;5.10;;
76117;SDS011;64851;50.232;20.364;2023-01-13T05:22:13;13.50;;;4.90;;
76117;SDS011;64851;50.232;20.364;2023-01-13T05:25:14;9.00;;;3.90;;
76117;SDS011;64851;50.232;20.364;2023-01-13T05:28:03;7.90;;;3.20;;
76117;SDS011;64851;50.232;20.364;2023-01-13T05:30:39;7.10;;;3.50;;
76117;SDS011;64851;50.232;20.364;2023-01-13T05:33:30;6.90;;;3.10;;
76117;SDS011;64851;50.232;20.364;2023-01-13T05:36:06;5.80;;;3.10;;
76117;SDS011;64851;50.232;20.364;2023-01-13T05:38:53;4.90;;;1.70;;
76117;SDS011;64851;50.232;20.364;2023-01-13T05:41:28;5.40;;;2.00;;
76117;SDS011;64851;50.232;20.364;2023-01-13T05:44:35;6.60;;;2.40;;
76117;SDS011;64851;50.232;20.364;2023-01-13T05:47:10;4.10;;;1.70;;
76117;SDS011;64851;50.232;20.364;2023-01-13T05:50:05;4.90;;;2.20;;
76117;SDS011;64851;50.232;20.364;2023-01-13T05:52:41;5.40;;;1.90;;
76117;SDS011;64851;50.232;20.364;2023-01-13T05:55:29;3.90;;;2.10;;
76117;SDS011;64851;50.232;20.364;2023-01-13T05:58:05;5.00;;;2.20;;
76117;SDS011;64851;50.232;20.364;2023-01-13T06:01:00;3.40;;;1.80;;
76117;SDS011;64851;50.232;20.364;2023-01-13T06:03:43;5.80;;;2.60;;
76117;SDS011;64851;50.232;20.364;2023-01-13T06:06:24;5.30;;;2.60;;
76117;SDS011;64851;50.232;20.364;2023-01-13T06:09:06;8.30;;;3.20;;
76117;SDS011;64851;50.232;20.364;2023-01-13T06:11:53;8.30;;;3.50;;
76117;SDS011;64851;50.232;20.364;2023-01-13T06:14:28;6.90;;;3.00;;
76117;SDS011;64851;50.232;20.364;2023-01-13T06:17:21;10.90;;;4.10;;
76117;SDS011;64851;50.232;20.364;2023-01-13T06:19:56;8.00;;;3.80;;
76117;SDS011;64851;50.232;20.364;2023-01-13T06:22:47;8.70;;;4.20;;
76117;SDS011;64851;50.232;20.364;2023-01-13T06:28:30;10.50;;;4.00;;
76117;SDS011;64851;50.232;20.364;2023-01-13T06:31:06;9.60;;;3.40;;
76117;SDS011;64851;50.232;20.364;2023-01-13T06:33:56;7.00;;;3.40;;
76117;SDS011;64851;50.232;20.364;2023-01-13T06:36:36;6.10;;;2.40;;
76117;SDS011;64851;50.232;20.364;2023-01-13T06:39:26;6.80;;;2.90;;
76117;SDS011;64851;50.232;20.364;2023-01-13T06:42:04;8.90;;;3.00;;
76117;SDS011;64851;50.232;20.364;2023-01-13T06:45:11;8.90;;;4.00;;
76117;SDS011;64851;50.232;20.364;2023-01-13T06:47:46;8.10;;;2.80;;
76117;SDS011;64851;50.232;20.364;2023-01-13T06:50:36;7.80;;;2.60;;
76117;SDS011;64851;50.232;20.364;2023-01-13T06:53:11;5.10;;;2.70;;
76117;SDS011;64851;50.232;20.364;2023-01-13T06:55:59;7.40;;;2.60;;
76117;SDS011;64851;50.232;20.364;2023-01-13T06:58:34;8.30;;;3.20;;
76117;SDS011;64851;50.232;20.364;2023-01-13T07:01:21;6.70;;;3.00;;
76117;SDS011;64851;50.232;20.364;2023-01-13T07:03:56;7.80;;;3.70;;
76117;SDS011;64851;50.232;20.364;2023-01-13T07:06:44;8.60;;;3.60;;
76117;SDS011;64851;50.232;20.364;2023-01-13T07:09:19;7.90;;;3.60;;
76117;SDS011;64851;50.232;20.364;2023-01-13T07:12:14;12.50;;;3.80;;
76117;SDS011;64851;50.232;20.364;2023-01-13T07:15:09;10.00;;;4.10;;
76117;SDS011;64851;50.232;20.364;2023-01-13T07:17:53;16.40;;;6.20;;
76117;SDS011;64851;50.232;20.364;2023-01-13T07:20:41;10.80;;;4.80;;
76117;SDS011;64851;50.232;20.364;2023-01-13T07:23:16;8.80;;;4.90;;
76117;SDS011;64851;50.232;20.364;2023-01-13T07:26:10;9.10;;;4.00;;
76117;SDS011;64851;50.232;20.364;2023-01-13T07:29:05;10.50;;;3.80;;
76117;SDS011;64851;50.232;20.364;2023-01-13T07:31:40;8.10;;;3.70;;
76117;SDS011;64851;50.232;20.364;2023-01-13T07:34:29;9.00;;;3.00;;
76117;SDS011;64851;50.232;20.364;2023-01-13T07:37:04;8.40;;;3.60;;
76117;SDS011;64851;50.232;20.364;2023-01-13T07:39:59;5.70;;;2.80;;
76117;SDS011;64851;50.232;20.364;2023-01-13T07:42:36;9.70;;;3.10;;
76117;SDS011;64851;50.232;20.364;2023-01-13T07:45:43;7.20;;;3.30;;
76117;SDS011;64851;50.232;20.364;2023-01-13T07:48:18;8.80;;;3.30;;
76117;SDS011;64851;50.232;20.364;2023-01-13T07:51:07;10.40;;;4.80;;
76117;SDS011;64851;50.232;20.364;2023-01-13T07:53:43;7.60;;;3.60;;
76117;SDS011;64851;50.232;20.364;2023-01-13T07:56:38;10.50;;;4.00;;
76117;SDS011;64851;50.232;20.364;2023-01-13T07:59:13;10.70;;;5.30;;
76117;SDS011;64851;50.232;20.364;2023-01-13T08:02:01;7.40;;;3.60;;
76117;SDS011;64851;50.232;20.364;2023-01-13T08:04:36;6.60;;;4.10;;
76117;SDS011;64851;50.232;20.364;2023-01-13T08:07:31;9.20;;;3.30;;
76117;SDS011;64851;50.232;20.364;2023-01-13T08:10:26;5.80;;;2.60;;
76117;SDS011;64851;50.232;20.364;2023-01-13T08:13:11;6.00;;;2.40;;
76117;SDS011;64851;50.232;20.364;2023-01-13T08:18:39;6.00;;;1.60;;
76117;SDS011;64851;50.232;20.364;2023-01-13T08:21:27;4.20;;;1.60;;
76117;SDS011;64851;50.232;20.364;2023-01-13T08:24:02;3.40;;;1.50;;
76117;SDS011;64851;50.232;20.364;2023-01-13T08:26:57;3.60;;;1.20;;
76117;SDS011;64851;50.232;20.364;2023-01-13T08:29:52;4.20;;;1.30;;
76117;SDS011;64851;50.232;20.364;2023-01-13T08:32:27;3.00;;;1.30;;
76117;SDS011;64851;50.232;20.364;2023-01-13T08:35:16;3.00;;;1.30;;
76117;SDS011;64851;50.232;20.364;2023-01-13T08:37:51;3.90;;;1.40;;
76117;SDS011;64851;50.232;20.364;2023-01-13T08:40:39;3.30;;;1.20;;
76117;SDS011;64851;50.232;20.364;2023-01-13T08:43:21;3.40;;;1.30;;
76117;SDS011;64851;50.232;20.364;2023-01-13T08:46:01;5.30;;;1.60;;
76117;SDS011;64851;50.232;20.364;2023-01-13T08:48:46;3.70;;;1.30;;
76117;SDS011;64851;50.232;20.364;2023-01-13T08:51:27;3.70;;;1.60;;
76117;SDS011;64851;50.232;20.364;2023-01-13T08:54:09;3.90;;;1.80;;
76117;SDS011;64851;50.232;20.364;2023-01-13T08:56:57;3.60;;;1.60;;
76117;SDS011;64851;50.232;20.364;2023-01-13T08:59:33;4.30;;;1.30;;
76117;SDS011;64851;50.232;20.364;2023-01-13T09:02:21;4.10;;;1.90;;
76117;SDS011;64851;50.232;20.364;2023-01-13T09:04:57;4.70;;;1.20;;
76117;SDS011;64851;50.232;20.364;2023-01-13T09:07:51;3.70;;;1.40;;
76117;SDS011;64851;50.232;20.364;2023-01-13T09:10:37;3.80;;;1.50;;
76117;SDS011;64851;50.232;20.364;2023-01-13T09:13:18;3.70;;;1.40;;
76117;SDS011;64851;50.232;20.364;2023-01-13T09:16:02;6.10;;;1.80;;
76117;SDS011;64851;50.232;20.364;2023-01-13T09:18:50;4.50;;;1.60;;
76117;SDS011;64851;50.232;20.364;2023-01-13T09:21:25;3.10;;;1.30;;
76117;SDS011;64851;50.232;20.364;2023-01-13T09:24:20;3.10;;;1.10;;
76117;SDS011;64851;50.232;20.364;2023-01-13T09:27:16;4.80;;;1.30;;
76117;SDS011;64851;50.232;20.364;2023-01-13T09:29:51;4.00;;;1.60;;
76117;SDS011;64851;50.232;20.364;2023-01-13T09:32:39;3.60;;;1.60;;
76117;SDS011;64851;50.232;20.364;2023-01-13T09:35:14;3.10;;;1.30;;
76117;SDS011;64851;50.232;20.364;2023-01-13T09:38:02;5.00;;;1.70;;
76117;SDS011;64851;50.232;20.364;2023-01-13T09:40:37;4.50;;;1.40;;
76117;SDS011;64851;50.232;20.364;2023-01-13T09:43:35;3.70;;;1.40;;
76117;SDS011;64851;50.232;20.364;2023-01-13T09:46:29;3.20;;;1.20;;
76117;SDS011;64851;50.232;20.364;2023-01-13T09:49:24;3.30;;;1.00;;
76117;SDS011;64851;50.232;20.364;2023-01-13T09:58:13;11.00;;;6.90;;
76117;SDS011;64851;50.232;20.364;2023-01-13T10:00:54;6.70;;;3.60;;
76117;SDS011;64851;50.232;20.364;2023-01-13T10:03:46;9.10;;;4.30;;
76117;SDS011;64851;50.232;20.364;2023-01-13T10:09:33;6.10;;;3.70;;
76117;SDS011;64851;50.232;20.364;2023-01-13T10:12:13;10.80;;;7.30;;
76117;SDS011;64851;50.232;20.364;2023-01-13T10:15:36;5.40;;;2.70;;
76117;SDS011;64851;50.232;20.364;2023-01-13T10:24:19;11.00;;;6.40;;
76117;SDS011;64851;50.232;20.364;2023-01-13T10:38:47;7.10;;;3.30;;
76117;SDS011;64851;50.232;20.364;2023-01-13T10:41:37;8.70;;;3.30;;
76117;SDS011;64851;50.232;20.364;2023-01-13T10:44:14;10.30;;;6.00;;
76117;SDS011;64851;50.232;20.364;2023-01-13T10:47:04;16.00;;;8.30;;
76117;SDS011;64851;50.232;20.364;2023-01-13T10:50:12;9.50;;;6.40;;
76117;SDS011;64851;50.232;20.364;2023-01-13T10:53:22;6.10;;;3.20;;
76117;SDS011;64851;50.232;20.364;2023-01-13T10:56:02;6.70;;;3.90;;
76117;SDS011;64851;50.232;20.364;2023-01-13T10:59:15;6.10;;;3.00;;
76117;SDS011;64851;50.232;20.364;2023-01-13T11:02:16;9.00;;;3.60;;
76117;SDS011;64851;50.232;20.364;2023-01-13T11:05:23;7.60;;;3.80;;
76117;SDS011;64851;50.232;20.364;2023-01-13T11:08:18;7.80;;;3.90;;
76117;SDS011;64851;50.232;20.364;2023-01-13T11:10:56;8.20;;;3.20;;
76117;SDS011;64851;50.232;20.364;2023-01-13T11:13:54;7.00;;;3.80;;
76117;SDS011;64851;50.232;20.364;2023-01-13T11:16:49;7.20;;;3.30;;
76117;SDS011;64851;50.232;20.364;2023-01-13T11:19:41;7.80;;;3.60;;
76117;SDS011;64851;50.232;20.364;2023-01-13T11:22:22;9.40;;;4.50;;
76117;SDS011;64851;50.232;20.364;2023-01-13T11:25:27;10.80;;;5.80;;
76117;SDS011;64851;50.232;20.364;2023-01-13T11:28:19;8.30;;;4.80;;
76117;SDS011;64851;50.232;20.364;2023-01-13T11:31:38;7.10;;;3.70;;
76117;SDS011;64851;50.232;20.364;2023-01-13T11:34:28;6.90;;;3.30;;
76117;SDS011;64851;50.232;20.364;2023-01-13T11:37:24;8.40;;;3.30;;
76117;SDS011;64851;50.232;20.364;2023-01-13T11:43:02;7.50;;;4.90;;
76117;SDS011;64851;50.232;20.364;2023-01-13T11:45:51;7.00;;;2.80;;
76117;SDS011;64851;50.232;20.364;2023-01-13T11:48:34;7.20;;;3.80;;
76117;SDS011;64851;50.232;20.364;2023-01-13T11:57:11;6.40;;;3.50;;
76117;SDS011;64851;50.232;20.364;2023-01-13T12:15:11;6.20;;;3.00;;
76117;SDS011;64851;50.232;20.364;2023-01-13T12:18:25;4.90;;;2.30;;
76117;SDS011;64851;50.232;20.364;2023-01-13T12:21:27;3.50;;;1.50;;
76117;SDS011;64851;50.232;20.364;2023-01-13T12:26:54;4.40;;;1.70;;
76117;SDS011;64851;50.232;20.364;2023-01-13T12:29:52;4.70;;;1.90;;
76117;SDS011;64851;50.232;20.364;2023-01-13T12:32:48;3.90;;;1.50;;
76117;SDS011;64851;50.232;20.364;2023-01-13T12:38:56;4.60;;;1.30;;
76117;SDS011;64851;50.232;20.364;2023-01-13T12:41:54;6.50;;;2.00;;
76117;SDS011;64851;50.232;20.364;2023-01-13T12:45:32;3.60;;;1.30;;
76117;SDS011;64851;50.232;20.364;2023-01-13T12:48:43;4.80;;;1.90;;
76117;SDS011;64851;50.232;20.364;2023-01-13T12:57:34;7.20;;;2.60;;
76117;SDS011;64851;50.232;20.364;2023-01-13T13:00:32;4.90;;;2.20;;
76117;SDS011;64851;50.232;20.364;2023-01-13T13:12:55;3.40;;;1.00;;
76117;SDS011;64851;50.232;20.364;2023-01-13T13:27:48;3.80;;;1.40;;
76117;SDS011;64851;50.232;20.364;2023-01-13T13:30:38;2.60;;;1.00;;
76117;SDS011;64851;50.232;20.364;2023-01-13T13:33:42;2.80;;;0.90;;
76117;SDS011;64851;50.232;20.364;2023-01-13T13:39:18;4.00;;;1.10;;
76117;SDS011;64851;50.232;20.364;2023-01-13T13:42:25;4.40;;;1.20;;
76117;SDS011;64851;50.232;20.364;2023-01-13T13:45:28;5.00;;;1.60;;
76117;SDS011;64851;50.232;20.364;2023-01-13T13:48:29;7.10;;;2.10;;
76117;SDS011;64851;50.232;20.364;2023-01-13T13:51:27;4.50;;;1.40;;
76117;SDS011;64851;50.232;20.364;2023-01-13T13:54:13;4.20;;;1.30;;
76117;SDS011;64851;50.232;20.364;2023-01-13T13:56:56;4.20;;;1.40;;
76117;SDS011;64851;50.232;20.364;2023-01-13T13:59:39;4.90;;;1.80;;
76117;SDS011;64851;50.232;20.364;2023-01-13T14:02:26;5.20;;;1.70;;
76117;SDS011;64851;50.232;20.364;2023-01-13T14:08:16;4.80;;;1.40;;
76117;SDS011;64851;50.232;20.364;2023-01-13T14:10:58;4.90;;;1.30;;
76117;SDS011;64851;50.232;20.364;2023-01-13T14:13:38;4.20;;;1.30;;
76117;SDS011;64851;50.232;20.364;2023-01-13T14:16:20;5.80;;;1.90;;
76117;SDS011;64851;50.232;20.364;2023-01-13T14:19:01;4.70;;;1.40;;
76117;SDS011;64851;50.232;20.364;2023-01-13T14:21:43;5.60;;;2.20;;
76117;SDS011;64851;50.232;20.364;2023-01-13T14:24:35;5.70;;;1.70;;
76117;SDS011;64851;50.232;20.364;2023-01-13T14:27:41;5.30;;;1.80;;
76117;SDS011;64851;50.232;20.364;2023-01-13T14:30:36;4.90;;;1.50;;
76117;SDS011;64851;50.232;20.364;2023-01-13T14:33:42;7.40;;;2.70;;
76117;SDS011;64851;50.232;20.364;2023-01-13T14:36:20;3.60;;;1.40;;
76117;SDS011;64851;50.232;20.364;2023-01-13T14:41:48;7.70;;;2.20;;
76117;SDS011;64851;50.232;20.364;2023-01-13T14:44:44;5.60;;;2.50;;
76117;SDS011;64851;50.232;20.364;2023-01-13T14:47:26;7.30;;;2.30;;
76117;SDS011;64851;50.232;20.364;2023-01-13T14:50:23;6.80;;;2.40;;
76117;SDS011;64851;50.232;20.364;2023-01-13T14:53:26;5.80;;;2.20;;
76117;SDS011;64851;50.232;20.364;2023-01-13T15:08:01;8.20;;;2.40;;
76117;SDS011;64851;50.232;20.364;2023-01-13T15:11:00;7.30;;;3.10;;
76117;SDS011;64851;50.232;20.364;2023-01-13T15:14:01;7.70;;;2.60;;
76117;SDS011;64851;50.232;20.364;2023-01-13T15:16:50;7.10;;;3.40;;
76117;SDS011;64851;50.232;20.364;2023-01-13T15:19:32;9.20;;;3.90;;
76117;SDS011;64851;50.232;20.364;2023-01-13T15:22:20;9.20;;;4.00;;
76117;SDS011;64851;50.232;20.364;2023-01-13T15:25:06;10.00;;;3.60;;
76117;SDS011;64851;50.232;20.364;2023-01-13T15:27:49;8.30;;;3.50;;
76117;SDS011;64851;50.232;20.364;2023-01-13T15:30:32;7.50;;;3.00;;
76117;SDS011;64851;50.232;20.364;2023-01-13T15:33:22;10.40;;;3.10;;
76117;SDS011;64851;50.232;20.364;2023-01-13T15:36:21;7.50;;;2.60;;
76117;SDS011;64851;50.232;20.364;2023-01-13T15:39:24;6.90;;;2.20;;
76117;SDS011;64851;50.232;20.364;2023-01-13T15:42:19;8.70;;;3.20;;
76117;SDS011;64851;50.232;20.364;2023-01-13T15:45:12;7.50;;;3.40;;
76117;SDS011;64851;50.232;20.364;2023-01-13T15:48:27;6.80;;;3.00;;
76117;SDS011;64851;50.232;20.364;2023-01-13T15:51:14;7.00;;;2.90;;
76117;SDS011;64851;50.232;20.364;2023-01-13T15:54:03;8.00;;;3.00;;
76117;SDS011;64851;50.232;20.364;2023-01-13T15:56:43;6.90;;;2.80;;
76117;SDS011;64851;50.232;20.364;2023-01-13T15:59:40;6.50;;;1.70;;
76117;SDS011;64851;50.232;20.364;2023-01-13T16:02:16;6.00;;;2.60;;
76117;SDS011;64851;50.232;20.364;2023-01-13T16:05:11;6.10;;;2.80;;
76117;SDS011;64851;50.232;20.364;2023-01-13T16:07:47;7.10;;;2.80;;
76117;SDS011;64851;50.232;20.364;2023-01-13T16:10:34;8.80;;;3.50;;
76117;SDS011;64851;50.232;20.364;2023-01-13T16:13:11;11.10;;;4.40;;
76117;SDS011;64851;50.232;20.364;2023-01-13T16:15:59;9.00;;;3.60;;
76117;SDS011;64851;50.232;20.364;2023-01-13T16:18:34;5.20;;;2.30;;
76117;SDS011;64851;50.232;20.364;2023-01-13T16:21:29;4.90;;;2.20;;
76117;SDS011;64851;50.232;20.364;2023-01-13T16:24:24;8.10;;;2.70;;
76117;SDS011;64851;50.232;20.364;2023-01-13T16:26:59;6.50;;;2.70;;
76117;SDS011;64851;50.232;20.364;2023-01-13T16:29:55;7.90;;;3.00;;
76117;SDS011;64851;50.232;20.364;2023-01-13T16:32:30;3.90;;;1.70;;
76117;SDS011;64851;50.232;20.364;2023-01-13T16:35:25;4.90;;;2.30;;
76117;SDS011;64851;50.232;20.364;2023-01-13T16:38:03;6.80;;;2.50;;
76117;SDS011;64851;50.232;20.364;2023-01-13T16:40:55;5.60;;;2.30;;
76117;SDS011;64851;50.232;20.364;2023-01-13T16:43:29;5.50;;;1.70;;
76117;SDS011;64851;50.232;20.364;2023-01-13T16:49:02;5.80;;;2.50;;
76117;SDS011;64851;50.232;20.364;2023-01-13T16:51:44;7.20;;;2.00;;
76117;SDS011;64851;50.232;20.364;2023-01-13T16:54:26;5.70;;;1.80;;
76117;SDS011;64851;50.232;20.364;2023-01-13T16:57:08;5.30;;;2.10;;
76117;SDS011;64851;50.232;20.364;2023-01-13T16:59:53;5.10;;;1.90;;
76117;SDS011;64851;50.232;20.364;2023-01-13T17:02:37;5.60;;;2.30;;
76117;SDS011;64851;50.232;20.364;2023-01-13T17:05:21;6.20;;;3.10;;
76117;SDS011;64851;50.232;20.364;2023-01-13T17:08:14;3.90;;;1.80;;
76117;SDS011;64851;50.232;20.364;2023-01-13T17:10:51;5.00;;;1.90;;
76117;SDS011;64851;50.232;20.364;2023-01-13T17:13:45;4.80;;;2.10;;
76117;SDS011;64851;50.232;20.364;2023-01-13T17:16:55;7.00;;;2.00;;
76117;SDS011;64851;50.232;20.364;2023-01-13T17:19:30;5.80;;;2.70;;
76117;SDS011;64851;50.232;20.364;2023-01-13T17:22:19;5.60;;;2.30;;
76117;SDS011;64851;50.232;20.364;2023-01-13T17:24:54;5.80;;;2.20;;
76117;SDS011;64851;50.232;20.364;2023-01-13T17:27:42;6.30;;;2.60;;
76117;SDS011;64851;50.232;20.364;2023-01-13T17:30:37;6.80;;;3.00;;
76117;SDS011;64851;50.232;20.364;2023-01-13T17:33:13;6.70;;;3.00;;
76117;SDS011;64851;50.232;20.364;2023-01-13T17:36:00;6.20;;;2.40;;
76117;SDS011;64851;50.232;20.364;2023-01-13T17:38:42;5.80;;;2.50;;
76117;SDS011;64851;50.232;20.364;2023-01-13T17:41:30;6.90;;;1.90;;
76117;SDS011;64851;50.232;20.364;2023-01-13T17:44:05;6.60;;;3.10;;
76117;SDS011;64851;50.232;20.364;2023-01-13T17:46:52;6.80;;;2.90;;
76117;SDS011;64851;50.232;20.364;2023-01-13T17:49:34;6.40;;;3.10;;
76117;SDS011;64851;50.232;20.364;2023-01-13T17:52:23;6.80;;;2.30;;
76117;SDS011;64851;50.232;20.364;2023-01-13T17:55:05;6.40;;;2.70;;
76117;SDS011;64851;50.232;20.364;2023-01-13T17:57:53;6.30;;;2.80;;
76117;SDS011;64851;50.232;20.364;2023-01-13T18:00:35;7.10;;;2.70;;
76117;SDS011;64851;50.232;20.364;2023-01-13T18:03:22;5.70;;;2.80;;
76117;SDS011;64851;50.232;20.364;2023-01-13T18:06:00;8.00;;;3.20;;
76117;SDS011;64851;50.232;20.364;2023-01-13T18:08:52;10.20;;;4.70;;
76117;SDS011;64851;50.232;20.364;2023-01-13T18:11:28;8.40;;;4.30;;
76117;SDS011;64851;50.232;20.364;2023-01-13T18:14:15;9.60;;;4.00;;
76117;SDS011;64851;50.232;20.364;2023-01-13T18:16:52;9.50;;;4.10;;
76117;SDS011;64851;50.232;20.364;2023-01-13T18:19:40;13.10;;;5.40;;
76117;SDS011;64851;50.232;20.364;2023-01-13T18:22:40;10.30;;;4.80;;
76117;SDS011;64851;50.232;20.364;2023-01-13T18:25:47;7.20;;;3.50;;
76117;SDS011;64851;50.232;20.364;2023-01-13T18:28:47;9.60;;;4.20;;
76117;SDS011;64851;50.232;20.364;2023-01-13T18:31:29;9.80;;;4.80;;
76117;SDS011;64851;50.232;20.364;2023-01-13T18:34:13;7.50;;;4.00;;
76117;SDS011;64851;50.232;20.364;2023-01-13T18:36:55;8.80;;;4.20;;
76117;SDS011;64851;50.232;20.364;2023-01-13T18:39:35;7.90;;;4.00;;
76117;SDS011;64851;50.232;20.364;2023-01-13T18:42:21;8.20;;;3.80;;
76117;SDS011;64851;50.232;20.364;2023-01-13T18:45:26;8.40;;;3.80;;
76117;SDS011;64851;50.232;20.364;2023-01-13T18:48:14;10.30;;;3.80;;
76117;SDS011;64851;50.232;20.364;2023-01-13T18:50:56;9.90;;;4.70;;
76117;SDS011;64851;50.232;20.364;2023-01-13T18:53:38;7.90;;;3.20;;
76117;SDS011;64851;50.232;20.364;2023-01-13T18:56:23;7.90;;;3.50;;
76117;SDS011;64851;50.232;20.364;2023-01-13T18:59:06;11.10;;;4.60;;